Latest Weather Observations for Dennes Point

IDT60901

Issued at 1:31 pm EDT Monday 30 November 2020 (issued every 10 minutes, with the page automatically refreshed every 10 minutes)

About weather observations | Map of Hobart area stations | Latest observations for Hobart area | Other Formats
Station Details ID: 094255 Name: DENNES POINT Lat: -43.06 Lon: 147.36 Height: 5.67 m
Data from the previous 72 hours. | See also: Recent months at Dennes Point
Date/Time
EDT
Temp
°C
App
Temp
°C
Dew
Point
°C
Rel
Hum
%
Delta-T
°C
Wind Press
QNH
hPa
Press
MSL
hPa
Rain since
9am
mm
Dir  Spd
km/h
Gust
km/h
Spd
kts
Gust
kts
30/01:30pm 17.7 13.4 8.0 53 4.9 ESE 20 26 11 14 1013.2 1013.2 0.0
30/01:00pm 18.4 14.8 8.4 52 5.2 ESE 17 22 9 12 1013.7 1013.7 0.0
30/12:30pm 17.3 14.6 7.4 52 5.0 ESE 11 17 6 9 1014.0 1014.0 0.0
30/12:00pm 16.6 13.3 8.1 57 4.3 ESE 15 19 8 10 1014.3 1014.3 0.0
30/11:30am 16.8 13.3 7.2 53 4.8 E 15 19 8 10 1014.9 1014.9 0.0
30/11:00am 17.5 14.6 6.7 49 5.3 E 11 17 6 9 1015.4 1015.4 0.0
30/10:30am 16.9 14.7 6.1 49 5.3 ENE 7 9 4 5 1015.8 1015.8 0.0
30/10:00am 16.3 14.2 5.9 50 5.0 NE 6 7 3 4 1015.8 1015.8 0.0
30/09:30am 15.8 13.6 6.0 52 4.7 NNE 7 11 4 6 1015.7 1015.7 0.0
30/09:00am 14.7 11.6 7.3 61 3.6 NNE 13 17 7 9 1015.5 1015.5 0.4
30/08:30am 14.6 12.1 6.7 59 3.8 NNE 9 11 5 6 1015.3 1015.3 0.4
30/08:00am 14.4 12.8 6.5 59 3.8 N 4 7 2 4 1015.0 1015.0 0.4
30/07:30am 13.2 11.4 5.4 59 3.6 SW 4 6 2 3 1014.7 1014.7 0.4
30/07:00am 11.4 9.1 5.7 68 2.6 SSW 7 11 4 6 1014.7 1014.7 0.4
30/06:30am 9.8 7.7 6.5 80 1.5 SSW 7 9 4 5 1014.7 1014.7 0.4
30/06:00am 8.3 5.7 5.9 85 1.1 SW 9 13 5 7 1014.3 1014.3 0.4
30/05:30am 9.0 5.7 6.4 84 1.2 SW 13 15 7 8 1014.2 1014.2 0.4
30/05:00am 8.8 6.1 5.5 80 1.5 SW 9 11 5 6 1013.7 1013.7 0.4
30/04:30am 9.2 6.9 5.9 80 1.5 SSW 7 9 4 5 1013.5 1013.5 0.4
30/04:00am 9.2 6.9 5.9 80 1.5 SW 7 11 4 6 1013.3 1013.3 0.4
30/03:30am 10.4 7.5 4.5 67 2.6 WSW 9 13 5 7 1013.2 1013.2 0.4
30/03:00am 12.6 8.9 6.4 66 2.9 NW 15 17 8 9 1013.2 1013.2 0.4
30/02:30am 12.2 9.6 6.3 67 2.8 NNW 9 11 5 6 1013.5 1013.5 0.4
30/02:00am 11.9 9.0 4.9 62 3.2 WNW 9 20 5 11 1013.2 1013.2 0.4
30/01:30am 11.6 9.2 5.3 65 2.9 W 7 13 4 7 1013.2 1013.2 0.4
30/01:00am 13.0 8.2 5.4 60 3.5 W 20 32 11 17 1013.4 1013.4 0.4
30/12:30am 12.5 8.7 5.9 64 3.1 W 15 19 8 10 1013.6 1013.6 0.4
30/12:00am 12.5 8.2 5.2 61 3.4 WSW 17 20 9 11 1013.2 1013.2 0.4
 
Date/Time
EDT
Temp
°C
App
Temp
°C
Dew
Point
°C
Rel
Hum
%
Delta-T
°C
Wind Press
QNH
hPa
Press
MSL
hPa
Rain since
9am
mm
Dir  Spd
km/h
Gust
km/h
Spd
kts
Gust
kts
29/11:30pm 12.6 7.8 4.8 59 3.6 WSW 19 24 10 13 1012.9 1012.9 0.4
29/11:00pm 13.0 7.7 5.2 59 3.6 W 22 28 12 15 1012.6 1012.6 0.4
29/10:30pm 13.3 8.6 6.2 62 3.4 WSW 20 24 11 13 1012.4 1012.4 0.4
29/10:00pm 13.7 9.2 6.8 63 3.3 WSW 20 28 11 15 1011.9 1011.9 0.4
29/09:30pm 14.2 9.2 6.6 60 3.7 WSW 22 26 12 14 1011.1 1011.1 0.4
29/09:00pm 14.3 11.0 6.4 59 3.8 SW 13 24 7 13 1010.7 1010.7 0.4
29/08:30pm 15.0 10.3 6.0 55 4.3 WSW 20 28 11 15 1009.9 1009.9 0.4
29/08:00pm 15.3 9.8 6.1 54 4.4 WSW 24 32 13 17 1009.2 1009.2 0.4
29/07:30pm 16.2 10.4 6.1 51 4.9 WSW 26 32 14 17 1008.7 1008.6 0.4
29/07:00pm 16.1 11.4 5.1 48 5.2 SW 19 26 10 14 1008.3 1008.2 0.4
29/06:30pm 17.9 13.3 5.8 45 5.9 SW 19 28 10 15 1007.8 1007.7 0.4
29/06:00pm 18.3 12.5 6.2 45 6.0 WSW 26 35 14 19 1007.1 1007.0 0.4
29/05:30pm 18.5 12.0 6.4 45 6.0 WSW 30 41 16 22 1006.5 1006.4 0.4
29/05:00pm 18.7 12.0 7.5 48 5.7 WSW 32 46 17 25 1006.0 1005.9 0.4
29/04:30pm 18.8 11.9 6.3 44 6.2 WSW 32 43 17 23 1005.4 1005.3 0.4
29/04:00pm 18.3 12.1 6.2 45 6.0 WSW 28 43 15 23 1004.8 1004.7 0.4
29/03:30pm 19.4 13.2 7.8 47 5.9 WSW 30 43 16 23 1004.5 1004.4 0.4
29/03:15pm 17.4 11.4 7.2 51 5.1 WSW 28 46 15 25 1004.1 1004.0 0.4
29/03:00pm 17.3 11.4 5.9 47 5.6 WSW 26 39 14 21 1003.8 1003.7 0.4
29/02:30pm 17.2 11.7 5.8 47 5.5 SW 24 35 13 19 1003.1 1003.0 0.4
29/02:00pm 17.6 13.1 6.8 49 5.4 SW 20 33 11 18 1002.5 1002.4 0.4
29/01:30pm 18.4 11.5 6.3 45 6.0 WSW 32 46 17 25 1002.1 1002.0 0.4
29/01:00pm 18.7 14.2 6.9 46 5.9 SW 20 30 11 16 1001.6 1001.6 0.4
29/12:30pm 16.5 11.0 6.1 50 5.1 SW 24 33 13 18 1001.4 1001.4 0.4
29/12:00pm 18.2 12.3 7.6 50 5.4 WSW 28 43 15 23 1000.8 1000.8 0.4
29/11:30am 15.0 11.3 10.0 72 2.6 SW 20 26 11 14 1000.8 1000.8 0.4
29/11:00am 13.6 10.5 8.9 73 2.4 SSW 15 28 8 15 1001.0 1001.0 0.0
29/10:30am 15.5 12.7 8.5 63 3.5 S 13 20 7 11 1001.0 1001.0 0.0
29/10:00am 15.1 11.9 9.9 71 2.7 SSW 17 24 9 13 1001.1 1001.1 0.0
29/09:30am 14.2 12.3 10.4 78 2.0 S 11 17 6 9 1000.9 1000.9 0.0
29/09:00am 13.9 12.8 10.5 80 1.8 SSE 7 9 4 5 1000.5 1000.5 0.0
29/08:30am 13.4 12.2 10.2 81 1.7 SSE 7 11 4 6 1000.4 1000.4 0.0
29/08:00am 13.2 12.0 10.2 82 1.6 SSE 7 11 4 6 1000.4 1000.4 0.0
29/07:30am 13.1 12.0 9.9 81 1.6 SSE 6 7 3 4 1000.2 1000.2 0.0
29/07:00am 13.1 12.0 9.9 81 1.7 SSW 6 9 3 5 1000.3 1000.3 0.0
29/06:30am 13.0 11.8 9.6 80 1.7 SSW 6 7 3 4 1000.0 1000.0 0.0
29/06:00am 13.0 11.2 9.6 80 1.7 SSW 9 15 5 8 1000.0 1000.0 0.0
29/05:30am 13.0 11.8 9.4 79 1.8 SSW 6 7 3 4 999.7 999.7 0.0
29/05:00am 13.1 11.7 9.5 79 1.8 SSW 7 9 4 5 999.8 999.8 0.0
29/04:30am 13.2 11.8 9.5 78 1.9 SSE 7 13 4 7 999.7 999.7 0.0
29/04:00am 13.3 11.9 9.5 78 1.9 SSE 7 11 4 6 1000.1 1000.1 0.0
29/03:30am 13.5 12.3 9.7 78 1.9 SSE 6 9 3 5 1000.6 1000.6 0.0
29/03:00am 13.6 12.3 10.0 79 1.9 SE 7 11 4 6 1001.2 1001.2 0.0
29/02:30am 13.6 12.3 10.0 79 1.9 SE 7 17 4 9 1001.7 1001.7 0.0
29/02:00am 13.6 12.1 10.4 81 1.7 ESE 9 15 5 8 1002.6 1002.5 0.0
29/01:30am 13.2 12.6 10.4 83 1.5 SSE 4 7 2 4 1002.6 1002.5 0.0
29/01:00am 13.1 12.2 10.5 84 1.4 SSE 6 9 3 5 1003.2 1003.1 0.0
29/12:30am 13.1 12.2 10.6 85 1.3 SSE 6 11 3 6 1003.2 1003.1 0.0
29/12:00am 13.2 12.1 10.6 84 1.4 SSE 7 17 4 9 1003.2 1003.1 0.0
 
Date/Time
EDT
Temp
°C
App
Temp
°C
Dew
Point
°C
Rel
Hum
%
Delta-T
°C
Wind Press
QNH
hPa
Press
MSL
hPa
Rain since
9am
mm
Dir  Spd
km/h
Gust
km/h
Spd
kts
Gust
kts
28/11:30pm 13.4 12.2 10.2 81 1.7 SE 7 11 4 6 1003.5 1003.4 0.0
28/11:00pm 14.1 12.8 10.1 77 2.1 SE 7 13 4 7 1004.1 1004.0 0.0
28/10:30pm 14.1 11.7 9.9 76 2.2 SE 13 19 7 10 1004.2 1004.1 0.0
28/10:00pm 14.1 11.4 10.3 78 2.0 ESE 15 19 8 10 1004.6 1004.5 0.0
28/09:30pm 14.2 11.5 10.2 77 2.1 SE 15 22 8 12 1004.8 1004.7 0.0
28/09:00pm 14.1 11.3 10.1 77 2.1 ESE 15 22 8 12 1004.6 1004.5 0.0
28/08:30pm 14.3 11.2 10.3 77 2.1 SE 17 22 9 12 1004.4 1004.3 0.0
28/08:00pm 14.3 10.9 10.5 78 2.0 ESE 19 24 10 13 1004.2 1004.1 0.0
28/07:30pm 14.4 11.0 10.4 77 2.1 ESE 19 26 10 14 1003.9 1003.8 0.0
28/07:00pm 14.9 11.7 11.1 78 2.0 ESE 19 26 10 14 1003.6 1003.5 0.0
28/06:30pm 15.2 12.0 11.2 77 2.1 ESE 19 24 10 13 1003.4 1003.3 0.0
28/06:00pm 15.7 12.4 11.5 76 2.3 ESE 20 24 11 13 1003.4 1003.3 0.0
28/05:30pm 16.3 13.0 10.8 70 2.9 ESE 19 24 10 13 1003.3 1003.2 0.0
28/05:00pm 17.1 13.3 11.2 68 3.2 ESE 22 30 12 16 1003.6 1003.5 0.0
28/04:30pm 17.5 13.4 11.5 68 3.3 ESE 24 32 13 17 1003.4 1003.3 0.0
28/04:00pm 18.1 14.3 11.0 63 3.9 ESE 22 30 12 16 1003.9 1003.8 0.0
28/03:30pm 17.7 14.0 9.3 58 4.4 ESE 19 30 10 16 1003.6 1003.5 0.0
28/03:00pm 18.6 14.4 9.7 56 4.7 ESE 22 35 12 19 1003.7 1003.6 0.0
28/02:30pm 22.7 19.1 5.2 32 8.7 SW 13 19 7 10 1003.6 1003.5 0.0
28/02:00pm 22.1 18.1 5.1 33 8.5 SSW 15 32 8 17 1003.9 1003.8 0.0
28/01:30pm 23.1 18.6 6.0 33 8.7 W 19 24 10 13 1004.4 1004.3 0.0
28/01:00pm 22.3 17.9 6.5 36 8.1 WSW 19 22 10 12 1004.9 1004.8 0.0
28/12:30pm 21.1 16.0 5.9 37 7.6 W 22 26 12 14 1004.9 1004.8 0.0
28/12:00pm 17.8 15.3 8.1 53 5.0 WNW 11 20 6 11 1005.1 1005.0 0.0
28/11:30am 18.7 16.8 6.9 46 5.9 NNW 6 7 3 4 1005.0 1004.9 0.0
28/11:00am 19.5 17.4 5.6 40 6.9 N 6 7 3 4 1004.4 1004.3 0.0
28/10:30am 18.7 16.6 5.9 43 6.3 N 6 9 3 5 1004.4 1004.3 0.0
28/10:00am 18.5 15.2 4.7 40 6.6 WSW 11 19 6 10 1004.7 1004.6 0.0
28/09:30am 18.0 14.7 6.5 47 5.7 WSW 13 17 7 9 1005.1 1005.0 0.0
28/09:00am 17.1 15.3 5.4 46 5.7 W 4 7 2 4 1005.0 1004.9 0.0
28/08:30am 16.6 14.5 5.6 48 5.3 W 6 7 3 4 1004.6 1004.5 0.0
28/08:00am 15.8 12.9 6.3 53 4.6 W 11 13 6 7 1004.3 1004.2 0.0
28/07:30am 15.2 13.1 6.5 56 4.2 WNW 7 11 4 6 1003.8 1003.7 0.0
28/07:00am 14.5 11.4 7.1 61 3.6 W 13 17 7 9 1003.7 1003.6 0.0
28/06:30am 13.2 11.4 7.9 70 2.6 WSW 7 11 4 6 1003.3 1003.2 0.0
28/06:00am 12.0 9.0 6.1 67 2.8 SSW 11 13 6 7 1002.6 1002.5 0.0
28/05:30am 12.4 10.2 6.2 66 2.9 SSW 7 11 4 6 1002.7 1002.6 0.0
28/05:00am 12.8 10.8 6.2 64 3.1 W 6 11 3 6 1003.0 1002.9 0.0
28/04:30am 14.4 12.3 6.7 60 3.7 WNW 7 11 4 6 1003.6 1003.5 0.0
28/04:00am 14.3 11.6 7.4 63 3.4 WNW 11 15 6 8 1003.9 1003.8 0.0
28/03:30am 13.9 11.7 7.7 66 3.1 W 9 13 5 7 1004.1 1004.0 0.0
28/03:00am 14.3 11.9 7.1 62 3.5 W 9 13 5 7 1004.4 1004.3 0.0
28/02:30am 14.9 11.1 7.5 61 3.7 W 17 24 9 13 1004.3 1004.2 0.0
28/02:00am 14.8 10.5 7.1 60 3.8 WSW 19 30 10 16 1004.1 1004.0 0.0
28/01:30am 14.6 12.9 7.4 62 3.5 SW 6 13 3 7 1003.9 1003.8 0.0
28/01:00am 14.7 12.4 7.5 62 3.6 SW 9 13 5 7 1004.3 1004.2 0.0
28/12:30am 14.8 14.0 9.6 71 2.7 W 4 9 2 5 1004.2 1004.1 0.0
28/12:00am 14.5 13.8 12.0 85 1.4 NNE 7 9 4 5 1004.4 1004.3 0.0
 
Date/Time
EDT
Temp
°C
App
Temp
°C
Dew
Point
°C
Rel
Hum
%
Delta-T
°C
Wind Press
QNH
hPa
Press
MSL
hPa
Rain since
9am
mm
Dir  Spd
km/h
Gust
km/h
Spd
kts
Gust
kts
27/11:30pm 13.7 13.9 11.9 89 1.0 E 2 6 1 3 1004.6 1004.5 0.0
27/11:00pm 13.4 13.9 11.5 88 1.0 CALM 0 4 0 2 1004.8 1004.7 0.0
27/10:30pm 13.4 13.1 11.5 88 1.0 SE 4 6 2 3 1004.6 1004.5 0.0
27/10:00pm 13.7 13.1 11.6 87 1.1 ESE 6 7 3 4 1004.4 1004.3 0.0
27/09:30pm 14.0 12.5 11.9 87 1.1 ESE 11 15 6 8 1004.4 1004.3 0.0
27/09:00pm 13.8 12.1 11.3 85 1.3 SE 11 15 6 8 1004.3 1004.2 0.0
27/08:30pm 14.0 11.6 11.3 84 1.4 ESE 15 19 8 10 1004.4 1004.3 0.0
27/08:00pm 14.1 12.8 11.3 83 1.5 SE 9 17 5 9 1004.6 1004.5 0.0
27/07:30pm 14.5 11.7 11.5 82 1.6 ESE 17 24 9 13 1004.1 1004.0 0.0
27/07:00pm 14.8 12.0 11.4 80 1.8 SE 17 26 9 14 1004.0 1003.9 0.0
27/06:30pm 15.1 11.3 11.3 78 2.0 ESE 22 30 12 16 1003.8 1003.7 0.0
27/06:00pm 15.6 11.5 11.4 76 2.3 ESE 24 32 13 17 1003.6 1003.5 0.0
27/05:30pm 16.6 13.5 11.5 72 2.8 SE 19 26 10 14 1003.6 1003.5 0.0
27/05:00pm 19.0 14.4 9.8 55 4.9 SE 24 37 13 20 1003.1 1003.0 0.0
27/04:30pm 21.6 15.9 9.8 47 6.4 N 30 41 16 22 1003.0 1002.9 0.0
27/04:00pm 21.8 16.3 9.3 45 6.7 N 28 37 15 20 1003.5 1003.4 0.0
27/03:30pm 21.7 16.9 10.2 48 6.3 N 26 33 14 18 1004.0 1003.9 0.0
27/03:00pm 22.2 17.6 11.0 49 6.2 N 26 33 14 18 1004.7 1004.6 0.0
27/02:30pm 22.1 16.0 10.3 47 6.4 N 33 43 18 23 1005.6 1005.5 0.0
27/02:00pm 21.6 15.5 9.8 47 6.4 N 32 37 17 20 1006.0 1005.9 0.0

Latest Capital City Observations: Canberra | Sydney | Melbourne | Brisbane | Adelaide | Perth | Hobart | Darwin

Other formats

Comma delimited format used in spreadsheet applications
http://www.bom.gov.au/fwo/IDT60901/IDT60901.94988.axf

JavaScript Object Notation format (JSON) in row-major order
http://www.bom.gov.au/fwo/IDT60901/IDT60901.94988.json

Data quality

Most of these data are generated automatically and are frequently updated. Quality checks on data are not normally performed. It is possible for incorrect values to appear. Refer to information at About Latest Weather Observations and please check the disclaimer before using these data.